Antonia, Missouri
Current Conditions -  °F | °C
As of 4:53 AM on Friday 28 Nov 2014 (Local Time) from KCPS Reporting Station
Clear Clear  
Wind Chill: -8°   Ceiling: Unl
Heat Index: -4°   Visibility: 10mi
Dew Point: -6°   Wind: 6mph
Humidity: 85%   Direction: 150°SSE
Pressure: 30.33"   Gusts: NA
Location:  38.3874°N, 90.4319°W
Report Text: KCPS 281053Z AUTO 15005KT 10SM CLR M04/M06 A3033 RMK AO2 SLP276 T10391061 TSNO
Loading
Personal Weather Stations






























Interactive Weather Map New forecast layout! Learn more

10-Day Weather Forecast

Advertisements
Track Severe Weather on mobile